sensor_id;sensor_type;location;lat;lon;timestamp;P1;durP1;ratioP1;P2;durP2;ratioP2
26484;SDS011;18083;50.560;7.262;2023-06-26T00:01:32;10.32;;;7.83;;
26484;SDS011;18083;50.560;7.262;2023-06-26T00:04:00;7.50;;;6.78;;
26484;SDS011;18083;50.560;7.262;2023-06-26T00:06:28;8.15;;;7.33;;
26484;SDS011;18083;50.560;7.262;2023-06-26T00:08:56;8.73;;;7.22;;
26484;SDS011;18083;50.560;7.262;2023-06-26T00:11:24;7.50;;;6.72;;
26484;SDS011;18083;50.560;7.262;2023-06-26T00:13:53;11.48;;;8.05;;
26484;SDS011;18083;50.560;7.262;2023-06-26T00:16:20;8.15;;;6.72;;
26484;SDS011;18083;50.560;7.262;2023-06-26T00:18:48;7.17;;;6.42;;
26484;SDS011;18083;50.560;7.262;2023-06-26T00:21:15;8.35;;;7.17;;
26484;SDS011;18083;50.560;7.262;2023-06-26T00:23:42;11.33;;;7.90;;
26484;SDS011;18083;50.560;7.262;2023-06-26T00:26:10;9.63;;;7.67;;
26484;SDS011;18083;50.560;7.262;2023-06-26T00:28:37;7.65;;;6.47;;
26484;SDS011;18083;50.560;7.262;2023-06-26T00:31:04;9.28;;;6.30;;
26484;SDS011;18083;50.560;7.262;2023-06-26T00:33:32;8.30;;;7.33;;
26484;SDS011;18083;50.560;7.262;2023-06-26T00:35:59;9.83;;;7.08;;
26484;SDS011;18083;50.560;7.262;2023-06-26T00:38:26;13.10;;;8.60;;
26484;SDS011;18083;50.560;7.262;2023-06-26T00:40:54;8.40;;;7.03;;
26484;SDS011;18083;50.560;7.262;2023-06-26T00:43:22;7.65;;;6.67;;
26484;SDS011;18083;50.560;7.262;2023-06-26T00:45:49;10.28;;;7.10;;
26484;SDS011;18083;50.560;7.262;2023-06-26T00:48:17;9.03;;;7.20;;
26484;SDS011;18083;50.560;7.262;2023-06-26T00:50:44;8.95;;;7.25;;
26484;SDS011;18083;50.560;7.262;2023-06-26T00:53:11;8.80;;;7.53;;
26484;SDS011;18083;50.560;7.262;2023-06-26T00:55:39;7.78;;;6.92;;
26484;SDS011;18083;50.560;7.262;2023-06-26T00:58:06;9.53;;;7.85;;
26484;SDS011;18083;50.560;7.262;2023-06-26T01:00:33;9.38;;;7.37;;
26484;SDS011;18083;50.560;7.262;2023-06-26T01:03:01;9.08;;;7.80;;
26484;SDS011;18083;50.560;7.262;2023-06-26T01:05:28;10.08;;;7.83;;
26484;SDS011;18083;50.560;7.262;2023-06-26T01:07:56;8.68;;;7.67;;
26484;SDS011;18083;50.560;7.262;2023-06-26T01:10:24;14.90;;;7.28;;
26484;SDS011;18083;50.560;7.262;2023-06-26T01:12:53;9.80;;;7.62;;
26484;SDS011;18083;50.560;7.262;2023-06-26T01:18:24;9.08;;;6.95;;
26484;SDS011;18083;50.560;7.262;2023-06-26T01:20:52;8.38;;;6.33;;
26484;SDS011;18083;50.560;7.262;2023-06-26T01:23:37;7.50;;;6.60;;
26484;SDS011;18083;50.560;7.262;2023-06-26T01:26:19;9.95;;;7.78;;
26484;SDS011;18083;50.560;7.262;2023-06-26T01:28:44;8.18;;;6.45;;
26484;SDS011;18083;50.560;7.262;2023-06-26T01:31:12;7.87;;;6.53;;
26484;SDS011;18083;50.560;7.262;2023-06-26T01:33:40;7.50;;;6.78;;
26484;SDS011;18083;50.560;7.262;2023-06-26T01:36:08;7.22;;;6.50;;
26484;SDS011;18083;50.560;7.262;2023-06-26T01:38:35;8.03;;;6.70;;
26484;SDS011;18083;50.560;7.262;2023-06-26T01:41:07;9.55;;;7.22;;
26484;SDS011;18083;50.560;7.262;2023-06-26T01:46:11;8.38;;;6.65;;
26484;SDS011;18083;50.560;7.262;2023-06-26T01:48:38;7.78;;;6.20;;
26484;SDS011;18083;50.560;7.262;2023-06-26T01:51:04;9.58;;;7.15;;
26484;SDS011;18083;50.560;7.262;2023-06-26T01:53:35;7.28;;;5.62;;
26484;SDS011;18083;50.560;7.262;2023-06-26T01:56:06;7.67;;;6.87;;
26484;SDS011;18083;50.560;7.262;2023-06-26T01:58:30;9.18;;;6.45;;
26484;SDS011;18083;50.560;7.262;2023-06-26T02:00:59;10.75;;;6.90;;
26484;SDS011;18083;50.560;7.262;2023-06-26T02:03:26;11.12;;;7.33;;
26484;SDS011;18083;50.560;7.262;2023-06-26T02:05:54;8.55;;;7.65;;
26484;SDS011;18083;50.560;7.262;2023-06-26T02:08:21;10.13;;;8.08;;
26484;SDS011;18083;50.560;7.262;2023-06-26T02:10:49;8.25;;;6.92;;
26484;SDS011;18083;50.560;7.262;2023-06-26T02:13:16;12.03;;;7.40;;
26484;SDS011;18083;50.560;7.262;2023-06-26T02:15:44;10.58;;;7.22;;
26484;SDS011;18083;50.560;7.262;2023-06-26T02:18:11;10.43;;;7.05;;
26484;SDS011;18083;50.560;7.262;2023-06-26T02:20:38;9.68;;;6.62;;
26484;SDS011;18083;50.560;7.262;2023-06-26T02:23:06;10.50;;;7.72;;
26484;SDS011;18083;50.560;7.262;2023-06-26T02:25:33;10.23;;;9.15;;
26484;SDS011;18083;50.560;7.262;2023-06-26T02:28:00;11.53;;;9.03;;
26484;SDS011;18083;50.560;7.262;2023-06-26T02:30:28;9.15;;;7.85;;
26484;SDS011;18083;50.560;7.262;2023-06-26T02:32:55;12.53;;;7.90;;
26484;SDS011;18083;50.560;7.262;2023-06-26T02:35:22;11.33;;;7.75;;
26484;SDS011;18083;50.560;7.262;2023-06-26T02:48:34;10.35;;;8.40;;
26484;SDS011;18083;50.560;7.262;2023-06-26T02:51:01;9.35;;;7.42;;
26484;SDS011;18083;50.560;7.262;2023-06-26T02:53:29;10.05;;;8.05;;
26484;SDS011;18083;50.560;7.262;2023-06-26T02:55:56;9.85;;;8.33;;
26484;SDS011;18083;50.560;7.262;2023-06-26T02:58:23;9.38;;;8.00;;
26484;SDS011;18083;50.560;7.262;2023-06-26T03:00:51;12.68;;;8.38;;
26484;SDS011;18083;50.560;7.262;2023-06-26T03:03:19;11.65;;;8.23;;
26484;SDS011;18083;50.560;7.262;2023-06-26T03:05:47;11.97;;;7.97;;
26484;SDS011;18083;50.560;7.262;2023-06-26T03:11:14;11.90;;;7.83;;
26484;SDS011;18083;50.560;7.262;2023-06-26T03:13:42;12.25;;;9.45;;
26484;SDS011;18083;50.560;7.262;2023-06-26T03:16:09;11.75;;;7.83;;
26484;SDS011;18083;50.560;7.262;2023-06-26T03:18:37;11.35;;;8.25;;
26484;SDS011;18083;50.560;7.262;2023-06-26T03:21:04;9.38;;;7.75;;
26484;SDS011;18083;50.560;7.262;2023-06-26T03:23:32;8.40;;;6.87;;
26484;SDS011;18083;50.560;7.262;2023-06-26T03:25:59;12.88;;;8.33;;
26484;SDS011;18083;50.560;7.262;2023-06-26T03:28:26;9.35;;;7.37;;
26484;SDS011;18083;50.560;7.262;2023-06-26T03:30:55;8.93;;;8.03;;
26484;SDS011;18083;50.560;7.262;2023-06-26T03:33:22;8.18;;;7.30;;
26484;SDS011;18083;50.560;7.262;2023-06-26T03:35:50;8.40;;;7.30;;
26484;SDS011;18083;50.560;7.262;2023-06-26T03:38:17;12.35;;;7.15;;
26484;SDS011;18083;50.560;7.262;2023-06-26T03:40:44;11.68;;;8.25;;
26484;SDS011;18083;50.560;7.262;2023-06-26T03:43:12;12.23;;;8.18;;
26484;SDS011;18083;50.560;7.262;2023-06-26T03:45:39;10.35;;;7.75;;
26484;SDS011;18083;50.560;7.262;2023-06-26T03:48:06;9.88;;;7.95;;
26484;SDS011;18083;50.560;7.262;2023-06-26T03:50:34;11.20;;;8.03;;
26484;SDS011;18083;50.560;7.262;2023-06-26T03:53:01;9.98;;;6.95;;
26484;SDS011;18083;50.560;7.262;2023-06-26T03:55:29;10.63;;;7.72;;
26484;SDS011;18083;50.560;7.262;2023-06-26T04:01:00;8.95;;;7.05;;
26484;SDS011;18083;50.560;7.262;2023-06-26T04:03:28;11.60;;;7.92;;
26484;SDS011;18083;50.560;7.262;2023-06-26T04:05:56;11.00;;;7.92;;
26484;SDS011;18083;50.560;7.262;2023-06-26T04:11:38;11.95;;;7.90;;
26484;SDS011;18083;50.560;7.262;2023-06-26T04:14:05;10.25;;;8.55;;
26484;SDS011;18083;50.560;7.262;2023-06-26T04:16:33;8.98;;;7.50;;
26484;SDS011;18083;50.560;7.262;2023-06-26T04:19:00;11.22;;;8.98;;
26484;SDS011;18083;50.560;7.262;2023-06-26T04:21:28;12.78;;;7.83;;
26484;SDS011;18083;50.560;7.262;2023-06-26T04:23:56;8.98;;;7.03;;
26484;SDS011;18083;50.560;7.262;2023-06-26T04:26:23;13.03;;;7.70;;
26484;SDS011;18083;50.560;7.262;2023-06-26T04:28:50;9.93;;;6.60;;
26484;SDS011;18083;50.560;7.262;2023-06-26T04:31:18;7.78;;;6.67;;
26484;SDS011;18083;50.560;7.262;2023-06-26T04:33:45;10.58;;;7.30;;
26484;SDS011;18083;50.560;7.262;2023-06-26T04:36:14;11.93;;;7.33;;
26484;SDS011;18083;50.560;7.262;2023-06-26T04:38:41;7.72;;;6.92;;
26484;SDS011;18083;50.560;7.262;2023-06-26T04:41:08;8.23;;;6.78;;
26484;SDS011;18083;50.560;7.262;2023-06-26T04:43:36;9.50;;;7.75;;
26484;SDS011;18083;50.560;7.262;2023-06-26T04:46:03;11.80;;;7.15;;
26484;SDS011;18083;50.560;7.262;2023-06-26T04:48:30;10.32;;;7.35;;
26484;SDS011;18083;50.560;7.262;2023-06-26T04:50:58;12.07;;;7.10;;
26484;SDS011;18083;50.560;7.262;2023-06-26T04:53:25;8.58;;;7.50;;
26484;SDS011;18083;50.560;7.262;2023-06-26T04:55:52;9.75;;;6.60;;
26484;SDS011;18083;50.560;7.262;2023-06-26T04:58:20;11.18;;;7.55;;
26484;SDS011;18083;50.560;7.262;2023-06-26T05:00:47;10.15;;;6.65;;
26484;SDS011;18083;50.560;7.262;2023-06-26T05:03:16;10.70;;;7.50;;
26484;SDS011;18083;50.560;7.262;2023-06-26T05:05:43;8.95;;;7.33;;
26484;SDS011;18083;50.560;7.262;2023-06-26T05:08:14;7.55;;;6.80;;
26484;SDS011;18083;50.560;7.262;2023-06-26T05:10:41;9.70;;;8.30;;
26484;SDS011;18083;50.560;7.262;2023-06-26T05:13:09;9.55;;;6.87;;
26484;SDS011;18083;50.560;7.262;2023-06-26T05:15:36;9.03;;;7.72;;
26484;SDS011;18083;50.560;7.262;2023-06-26T05:18:03;9.63;;;6.75;;
26484;SDS011;18083;50.560;7.262;2023-06-26T05:20:32;8.30;;;7.00;;
26484;SDS011;18083;50.560;7.262;2023-06-26T05:23:00;10.43;;;7.25;;
26484;SDS011;18083;50.560;7.262;2023-06-26T05:25:27;9.90;;;6.55;;
26484;SDS011;18083;50.560;7.262;2023-06-26T05:27:58;10.50;;;7.30;;
26484;SDS011;18083;50.560;7.262;2023-06-26T05:30:26;8.30;;;6.60;;
26484;SDS011;18083;50.560;7.262;2023-06-26T05:32:54;9.20;;;6.65;;
26484;SDS011;18083;50.560;7.262;2023-06-26T05:35:21;8.10;;;7.25;;
26484;SDS011;18083;50.560;7.262;2023-06-26T05:37:49;13.38;;;8.48;;
26484;SDS011;18083;50.560;7.262;2023-06-26T05:40:17;8.53;;;7.30;;
26484;SDS011;18083;50.560;7.262;2023-06-26T05:42:45;11.05;;;7.67;;
26484;SDS011;18083;50.560;7.262;2023-06-26T05:45:12;8.95;;;6.92;;
26484;SDS011;18083;50.560;7.262;2023-06-26T05:47:40;8.93;;;7.00;;
26484;SDS011;18083;50.560;7.262;2023-06-26T05:50:07;9.28;;;7.25;;
26484;SDS011;18083;50.560;7.262;2023-06-26T05:52:35;9.90;;;7.35;;
26484;SDS011;18083;50.560;7.262;2023-06-26T05:55:02;9.10;;;7.58;;
26484;SDS011;18083;50.560;7.262;2023-06-26T05:57:30;7.67;;;6.72;;
26484;SDS011;18083;50.560;7.262;2023-06-26T05:59:59;7.83;;;6.65;;
26484;SDS011;18083;50.560;7.262;2023-06-26T06:02:29;10.45;;;8.33;;
26484;SDS011;18083;50.560;7.262;2023-06-26T06:04:56;10.32;;;8.20;;
26484;SDS011;18083;50.560;7.262;2023-06-26T06:07:24;12.65;;;7.70;;
26484;SDS011;18083;50.560;7.262;2023-06-26T06:09:51;10.35;;;7.42;;
26484;SDS011;18083;50.560;7.262;2023-06-26T06:12:18;10.58;;;7.45;;
26484;SDS011;18083;50.560;7.262;2023-06-26T06:14:45;8.60;;;7.70;;
26484;SDS011;18083;50.560;7.262;2023-06-26T06:17:13;9.05;;;7.03;;
26484;SDS011;18083;50.560;7.262;2023-06-26T06:19:40;9.78;;;7.42;;
26484;SDS011;18083;50.560;7.262;2023-06-26T06:22:07;12.95;;;7.53;;
26484;SDS011;18083;50.560;7.262;2023-06-26T06:24:34;8.40;;;7.42;;
26484;SDS011;18083;50.560;7.262;2023-06-26T06:27:02;9.05;;;7.33;;
26484;SDS011;18083;50.560;7.262;2023-06-26T06:29:29;8.48;;;6.72;;
26484;SDS011;18083;50.560;7.262;2023-06-26T06:31:57;7.42;;;6.53;;
26484;SDS011;18083;50.560;7.262;2023-06-26T06:34:24;7.95;;;6.22;;
26484;SDS011;18083;50.560;7.262;2023-06-26T06:36:51;11.63;;;7.53;;
26484;SDS011;18083;50.560;7.262;2023-06-26T06:39:18;9.30;;;7.28;;
26484;SDS011;18083;50.560;7.262;2023-06-26T06:41:46;10.70;;;6.58;;
26484;SDS011;18083;50.560;7.262;2023-06-26T06:44:13;10.58;;;6.05;;
26484;SDS011;18083;50.560;7.262;2023-06-26T06:46:40;8.80;;;6.30;;
26484;SDS011;18083;50.560;7.262;2023-06-26T06:49:08;7.42;;;5.87;;
26484;SDS011;18083;50.560;7.262;2023-06-26T06:51:35;7.50;;;5.45;;
26484;SDS011;18083;50.560;7.262;2023-06-26T06:54:02;6.78;;;6.08;;
26484;SDS011;18083;50.560;7.262;2023-06-26T06:56:30;9.48;;;5.33;;
26484;SDS011;18083;50.560;7.262;2023-06-26T06:58:57;9.63;;;6.72;;
26484;SDS011;18083;50.560;7.262;2023-06-26T07:01:24;9.03;;;5.53;;
26484;SDS011;18083;50.560;7.262;2023-06-26T07:03:52;5.87;;;4.83;;
26484;SDS011;18083;50.560;7.262;2023-06-26T07:06:19;5.85;;;5.22;;
26484;SDS011;18083;50.560;7.262;2023-06-26T07:08:47;7.47;;;4.40;;
26484;SDS011;18083;50.560;7.262;2023-06-26T07:11:14;9.70;;;5.40;;
26484;SDS011;18083;50.560;7.262;2023-06-26T07:13:41;5.17;;;4.45;;
26484;SDS011;18083;50.560;7.262;2023-06-26T07:16:09;7.55;;;4.97;;
26484;SDS011;18083;50.560;7.262;2023-06-26T07:18:38;7.75;;;4.70;;
26484;SDS011;18083;50.560;7.262;2023-06-26T07:21:05;6.37;;;4.47;;
26484;SDS011;18083;50.560;7.262;2023-06-26T07:23:32;7.05;;;4.75;;
26484;SDS011;18083;50.560;7.262;2023-06-26T07:26:00;4.75;;;4.05;;
26484;SDS011;18083;50.560;7.262;2023-06-26T07:28:27;7.62;;;4.22;;
26484;SDS011;18083;50.560;7.262;2023-06-26T07:30:54;5.75;;;4.22;;
26484;SDS011;18083;50.560;7.262;2023-06-26T07:33:21;5.58;;;3.98;;
26484;SDS011;18083;50.560;7.262;2023-06-26T07:35:49;6.90;;;4.05;;
26484;SDS011;18083;50.560;7.262;2023-06-26T07:38:16;8.25;;;4.70;;
26484;SDS011;18083;50.560;7.262;2023-06-26T07:40:43;7.33;;;4.03;;
26484;SDS011;18083;50.560;7.262;2023-06-26T07:43:10;7.42;;;3.98;;
26484;SDS011;18083;50.560;7.262;2023-06-26T07:45:38;8.13;;;4.70;;
26484;SDS011;18083;50.560;7.262;2023-06-26T07:48:05;10.00;;;4.53;;
26484;SDS011;18083;50.560;7.262;2023-06-26T07:50:33;11.60;;;5.05;;
26484;SDS011;18083;50.560;7.262;2023-06-26T07:53:00;5.92;;;4.10;;
26484;SDS011;18083;50.560;7.262;2023-06-26T07:55:28;8.55;;;4.08;;
26484;SDS011;18083;50.560;7.262;2023-06-26T07:57:55;8.20;;;4.70;;
26484;SDS011;18083;50.560;7.262;2023-06-26T08:00:23;6.35;;;4.35;;
26484;SDS011;18083;50.560;7.262;2023-06-26T08:02:50;8.13;;;4.75;;
26484;SDS011;18083;50.560;7.262;2023-06-26T08:05:17;8.83;;;5.37;;
26484;SDS011;18083;50.560;7.262;2023-06-26T08:07:44;12.65;;;4.67;;
26484;SDS011;18083;50.560;7.262;2023-06-26T08:10:12;7.65;;;4.55;;
26484;SDS011;18083;50.560;7.262;2023-06-26T08:12:39;11.65;;;4.72;;
26484;SDS011;18083;50.560;7.262;2023-06-26T08:15:08;6.55;;;4.90;;
26484;SDS011;18083;50.560;7.262;2023-06-26T08:17:36;9.35;;;5.47;;
26484;SDS011;18083;50.560;7.262;2023-06-26T08:20:04;7.22;;;4.65;;
26484;SDS011;18083;50.560;7.262;2023-06-26T08:22:33;5.97;;;4.37;;
26484;SDS011;18083;50.560;7.262;2023-06-26T08:25:01;12.37;;;5.40;;
26484;SDS011;18083;50.560;7.262;2023-06-26T08:27:29;5.50;;;4.42;;
26484;SDS011;18083;50.560;7.262;2023-06-26T08:29:56;7.62;;;4.40;;
26484;SDS011;18083;50.560;7.262;2023-06-26T08:32:23;6.60;;;4.22;;
26484;SDS011;18083;50.560;7.262;2023-06-26T08:34:51;7.20;;;5.05;;
26484;SDS011;18083;50.560;7.262;2023-06-26T08:37:18;9.95;;;5.60;;
26484;SDS011;18083;50.560;7.262;2023-06-26T08:39:46;9.08;;;4.90;;
26484;SDS011;18083;50.560;7.262;2023-06-26T08:42:13;11.25;;;6.15;;
26484;SDS011;18083;50.560;7.262;2023-06-26T08:44:40;14.18;;;5.42;;
26484;SDS011;18083;50.560;7.262;2023-06-26T08:47:08;13.15;;;5.53;;
26484;SDS011;18083;50.560;7.262;2023-06-26T08:49:37;8.25;;;4.87;;
26484;SDS011;18083;50.560;7.262;2023-06-26T08:52:14;9.93;;;5.22;;
26484;SDS011;18083;50.560;7.262;2023-06-26T08:54:40;7.50;;;4.87;;
26484;SDS011;18083;50.560;7.262;2023-06-26T08:57:06;7.97;;;4.58;;
26484;SDS011;18083;50.560;7.262;2023-06-26T08:59:34;10.72;;;4.78;;
26484;SDS011;18083;50.560;7.262;2023-06-26T09:02:01;7.30;;;5.15;;
26484;SDS011;18083;50.560;7.262;2023-06-26T09:04:29;8.98;;;5.17;;
26484;SDS011;18083;50.560;7.262;2023-06-26T09:06:56;6.97;;;4.72;;
26484;SDS011;18083;50.560;7.262;2023-06-26T09:09:23;12.03;;;4.87;;
26484;SDS011;18083;50.560;7.262;2023-06-26T09:11:50;11.65;;;5.22;;
26484;SDS011;18083;50.560;7.262;2023-06-26T09:14:18;11.65;;;4.30;;
26484;SDS011;18083;50.560;7.262;2023-06-26T09:16:45;8.05;;;3.58;;
26484;SDS011;18083;50.560;7.262;2023-06-26T09:19:12;5.42;;;3.77;;
26484;SDS011;18083;50.560;7.262;2023-06-26T09:21:41;9.45;;;5.62;;
26484;SDS011;18083;50.560;7.262;2023-06-26T09:24:09;4.87;;;4.03;;
26484;SDS011;18083;50.560;7.262;2023-06-26T09:26:37;5.97;;;4.15;;
26484;SDS011;18083;50.560;7.262;2023-06-26T09:29:08;11.08;;;4.08;;
26484;SDS011;18083;50.560;7.262;2023-06-26T09:31:38;4.55;;;3.15;;
26484;SDS011;18083;50.560;7.262;2023-06-26T09:34:06;5.10;;;3.75;;
26484;SDS011;18083;50.560;7.262;2023-06-26T09:36:33;10.30;;;4.08;;
26484;SDS011;18083;50.560;7.262;2023-06-26T09:39:03;7.20;;;4.60;;
26484;SDS011;18083;50.560;7.262;2023-06-26T09:41:35;4.90;;;3.77;;
26484;SDS011;18083;50.560;7.262;2023-06-26T09:44:02;6.28;;;3.85;;
26484;SDS011;18083;50.560;7.262;2023-06-26T09:46:30;5.20;;;4.33;;
26484;SDS011;18083;50.560;7.262;2023-06-26T09:51:37;5.75;;;3.70;;
26484;SDS011;18083;50.560;7.262;2023-06-26T09:54:01;9.50;;;3.87;;
26484;SDS011;18083;50.560;7.262;2023-06-26T09:56:29;6.40;;;3.47;;
26484;SDS011;18083;50.560;7.262;2023-06-26T09:58:57;5.28;;;3.33;;
26484;SDS011;18083;50.560;7.262;2023-06-26T10:01:25;4.40;;;3.40;;
26484;SDS011;18083;50.560;7.262;2023-06-26T10:03:53;5.65;;;2.98;;
26484;SDS011;18083;50.560;7.262;2023-06-26T10:06:24;9.75;;;3.10;;
26484;SDS011;18083;50.560;7.262;2023-06-26T10:08:52;18.07;;;2.67;;
26484;SDS011;18083;50.560;7.262;2023-06-26T10:11:21;4.03;;;2.83;;
26484;SDS011;18083;50.560;7.262;2023-06-26T10:13:49;7.15;;;2.40;;
26484;SDS011;18083;50.560;7.262;2023-06-26T10:16:23;8.18;;;3.37;;
26484;SDS011;18083;50.560;7.262;2023-06-26T10:18:52;12.93;;;3.35;;
26484;SDS011;18083;50.560;7.262;2023-06-26T10:21:20;7.05;;;3.00;;
26484;SDS011;18083;50.560;7.262;2023-06-26T10:26:25;4.60;;;2.47;;
26484;SDS011;18083;50.560;7.262;2023-06-26T10:29:04;5.42;;;2.60;;
26484;SDS011;18083;50.560;7.262;2023-06-26T10:31:31;7.87;;;2.50;;
26484;SDS011;18083;50.560;7.262;2023-06-26T10:42:11;3.47;;;2.27;;
26484;SDS011;18083;50.560;7.262;2023-06-26T10:44:42;6.78;;;3.10;;
26484;SDS011;18083;50.560;7.262;2023-06-26T10:47:10;8.90;;;3.22;;
26484;SDS011;18083;50.560;7.262;2023-06-26T10:49:38;4.78;;;2.33;;
26484;SDS011;18083;50.560;7.262;2023-06-26T10:52:05;3.58;;;2.30;;
26484;SDS011;18083;50.560;7.262;2023-06-26T10:54:34;3.42;;;2.20;;
26484;SDS011;18083;50.560;7.262;2023-06-26T10:57:02;6.12;;;1.85;;
26484;SDS011;18083;50.560;7.262;2023-06-26T10:59:31;3.47;;;2.35;;
26484;SDS011;18083;50.560;7.262;2023-06-26T11:07:33;6.12;;;2.05;;
26484;SDS011;18083;50.560;7.262;2023-06-26T11:10:22;2.37;;;1.82;;
26484;SDS011;18083;50.560;7.262;2023-06-26T11:12:53;7.12;;;2.02;;
26484;SDS011;18083;50.560;7.262;2023-06-26T11:15:20;3.33;;;2.10;;
26484;SDS011;18083;50.560;7.262;2023-06-26T11:17:48;5.28;;;2.05;;
26484;SDS011;18083;50.560;7.262;2023-06-26T11:20:15;3.92;;;1.75;;
26484;SDS011;18083;50.560;7.262;2023-06-26T11:22:44;2.60;;;2.12;;
26484;SDS011;18083;50.560;7.262;2023-06-26T11:25:11;4.97;;;2.10;;
26484;SDS011;18083;50.560;7.262;2023-06-26T11:33:14;4.25;;;2.02;;
26484;SDS011;18083;50.560;7.262;2023-06-26T11:49:52;6.62;;;2.30;;
26484;SDS011;18083;50.560;7.262;2023-06-26T11:52:32;4.33;;;2.00;;
26484;SDS011;18083;50.560;7.262;2023-06-26T12:00:26;1.85;;;1.70;;
26484;SDS011;18083;50.560;7.262;2023-06-26T12:03:05;5.03;;;1.90;;
26484;SDS011;18083;50.560;7.262;2023-06-26T12:11:24;2.70;;;1.60;;
26484;SDS011;18083;50.560;7.262;2023-06-26T12:13:54;3.58;;;2.12;;
26484;SDS011;18083;50.560;7.262;2023-06-26T12:16:31;4.12;;;1.85;;
26484;SDS011;18083;50.560;7.262;2023-06-26T12:18:59;1.95;;;1.65;;
26484;SDS011;18083;50.560;7.262;2023-06-26T12:24:20;5.37;;;2.12;;
26484;SDS011;18083;50.560;7.262;2023-06-26T12:26:48;3.87;;;1.98;;
26484;SDS011;18083;50.560;7.262;2023-06-26T12:32:03;4.25;;;2.00;;
26484;SDS011;18083;50.560;7.262;2023-06-26T12:34:32;2.27;;;1.80;;
26484;SDS011;18083;50.560;7.262;2023-06-26T12:37:01;4.67;;;1.72;;
26484;SDS011;18083;50.560;7.262;2023-06-26T12:42:15;6.08;;;2.15;;
26484;SDS011;18083;50.560;7.262;2023-06-26T12:44:42;3.80;;;1.98;;
26484;SDS011;18083;50.560;7.262;2023-06-26T12:47:10;3.12;;;1.45;;
26484;SDS011;18083;50.560;7.262;2023-06-26T12:49:39;5.35;;;2.05;;
26484;SDS011;18083;50.560;7.262;2023-06-26T12:52:09;5.90;;;1.95;;
26484;SDS011;18083;50.560;7.262;2023-06-26T12:57:39;5.10;;;1.40;;
26484;SDS011;18083;50.560;7.262;2023-06-26T13:00:09;4.53;;;1.82;;
26484;SDS011;18083;50.560;7.262;2023-06-26T13:02:36;2.95;;;1.82;;
26484;SDS011;18083;50.560;7.262;2023-06-26T13:05:06;4.28;;;1.95;;
26484;SDS011;18083;50.560;7.262;2023-06-26T13:07:34;6.28;;;2.40;;
26484;SDS011;18083;50.560;7.262;2023-06-26T13:10:01;8.13;;;2.02;;
26484;SDS011;18083;50.560;7.262;2023-06-26T13:12:29;4.00;;;2.45;;
26484;SDS011;18083;50.560;7.262;2023-06-26T13:14:57;4.53;;;2.12;;
26484;SDS011;18083;50.560;7.262;2023-06-26T13:17:24;2.98;;;1.87;;
26484;SDS011;18083;50.560;7.262;2023-06-26T13:19:51;6.30;;;2.20;;
26484;SDS011;18083;50.560;7.262;2023-06-26T13:22:18;3.98;;;1.82;;
26484;SDS011;18083;50.560;7.262;2023-06-26T13:24:46;6.97;;;2.10;;
26484;SDS011;18083;50.560;7.262;2023-06-26T13:27:13;8.33;;;2.35;;
26484;SDS011;18083;50.560;7.262;2023-06-26T13:29:42;7.22;;;3.00;;
26484;SDS011;18083;50.560;7.262;2023-06-26T13:32:09;4.42;;;1.70;;
26484;SDS011;18083;50.560;7.262;2023-06-26T13:34:36;3.92;;;1.57;;
26484;SDS011;18083;50.560;7.262;2023-06-26T13:37:04;4.97;;;1.90;;
26484;SDS011;18083;50.560;7.262;2023-06-26T13:39:32;5.05;;;2.20;;
26484;SDS011;18083;50.560;7.262;2023-06-26T13:42:00;5.72;;;1.62;;
26484;SDS011;18083;50.560;7.262;2023-06-26T13:44:27;1.95;;;1.62;;
26484;SDS011;18083;50.560;7.262;2023-06-26T13:46:54;4.33;;;2.22;;
26484;SDS011;18083;50.560;7.262;2023-06-26T13:49:22;6.87;;;2.33;;
26484;SDS011;18083;50.560;7.262;2023-06-26T13:51:49;1.60;;;1.40;;
26484;SDS011;18083;50.560;7.262;2023-06-26T13:54:16;1.65;;;1.37;;
26484;SDS011;18083;50.560;7.262;2023-06-26T13:56:44;1.25;;;1.15;;
26484;SDS011;18083;50.560;7.262;2023-06-26T13:59:12;6.10;;;2.25;;
26484;SDS011;18083;50.560;7.262;2023-06-26T14:01:39;8.03;;;2.40;;
26484;SDS011;18083;50.560;7.262;2023-06-26T14:04:08;4.72;;;1.70;;
26484;SDS011;18083;50.560;7.262;2023-06-26T14:06:38;3.95;;;1.62;;
26484;SDS011;18083;50.560;7.262;2023-06-26T14:09:04;1.87;;;1.50;;
26484;SDS011;18083;50.560;7.262;2023-06-26T14:11:36;6.70;;;1.90;;
26484;SDS011;18083;50.560;7.262;2023-06-26T14:14:02;3.35;;;1.75;;
26484;SDS011;18083;50.560;7.262;2023-06-26T14:16:31;3.65;;;1.75;;
26484;SDS011;18083;50.560;7.262;2023-06-26T14:18:58;3.27;;;1.52;;
26484;SDS011;18083;50.560;7.262;2023-06-26T14:21:28;2.90;;;1.50;;
26484;SDS011;18083;50.560;7.262;2023-06-26T14:24:01;3.05;;;2.17;;
26484;SDS011;18083;50.560;7.262;2023-06-26T14:26:28;3.58;;;1.40;;
26484;SDS011;18083;50.560;7.262;2023-06-26T14:28:58;2.80;;;1.70;;
26484;SDS011;18083;50.560;7.262;2023-06-26T14:31:25;2.72;;;1.27;;
26484;SDS011;18083;50.560;7.262;2023-06-26T14:33:52;2.98;;;1.80;;
26484;SDS011;18083;50.560;7.262;2023-06-26T14:36:20;3.37;;;1.40;;
26484;SDS011;18083;50.560;7.262;2023-06-26T14:38:47;2.60;;;1.47;;
26484;SDS011;18083;50.560;7.262;2023-06-26T14:41:14;3.55;;;1.40;;
26484;SDS011;18083;50.560;7.262;2023-06-26T14:43:42;2.92;;;1.47;;
26484;SDS011;18083;50.560;7.262;2023-06-26T14:46:09;3.47;;;1.77;;
26484;SDS011;18083;50.560;7.262;2023-06-26T14:48:36;1.55;;;1.15;;
26484;SDS011;18083;50.560;7.262;2023-06-26T14:51:03;6.92;;;2.20;;
26484;SDS011;18083;50.560;7.262;2023-06-26T14:53:31;3.83;;;1.82;;
26484;SDS011;18083;50.560;7.262;2023-06-26T14:55:58;4.72;;;1.60;;
26484;SDS011;18083;50.560;7.262;2023-06-26T14:58:25;2.58;;;1.35;;
26484;SDS011;18083;50.560;7.262;2023-06-26T15:00:52;4.60;;;1.67;;
26484;SDS011;18083;50.560;7.262;2023-06-26T15:03:20;5.95;;;1.95;;
26484;SDS011;18083;50.560;7.262;2023-06-26T15:05:47;5.85;;;1.67;;
26484;SDS011;18083;50.560;7.262;2023-06-26T15:08:15;4.83;;;1.70;;
26484;SDS011;18083;50.560;7.262;2023-06-26T15:10:42;4.95;;;1.35;;
26484;SDS011;18083;50.560;7.262;2023-06-26T15:13:09;8.50;;;3.45;;
26484;SDS011;18083;50.560;7.262;2023-06-26T15:15:36;4.60;;;1.57;;
26484;SDS011;18083;50.560;7.262;2023-06-26T15:18:04;4.95;;;1.50;;
26484;SDS011;18083;50.560;7.262;2023-06-26T15:20:32;7.05;;;1.82;;
26484;SDS011;18083;50.560;7.262;2023-06-26T15:22:59;6.55;;;1.75;;
26484;SDS011;18083;50.560;7.262;2023-06-26T15:25:27;2.33;;;1.42;;
26484;SDS011;18083;50.560;7.262;2023-06-26T15:27:54;3.08;;;1.55;;
26484;SDS011;18083;50.560;7.262;2023-06-26T15:30:22;4.92;;;2.02;;
26484;SDS011;18083;50.560;7.262;2023-06-26T15:32:49;6.72;;;1.62;;
26484;SDS011;18083;50.560;7.262;2023-06-26T15:35:16;5.78;;;1.62;;
26484;SDS011;18083;50.560;7.262;2023-06-26T15:37:43;7.90;;;1.72;;
26484;SDS011;18083;50.560;7.262;2023-06-26T15:40:11;3.67;;;1.62;;
26484;SDS011;18083;50.560;7.262;2023-06-26T15:42:45;5.12;;;1.77;;
26484;SDS011;18083;50.560;7.262;2023-06-26T15:45:13;2.42;;;1.90;;
26484;SDS011;18083;50.560;7.262;2023-06-26T15:47:40;6.90;;;2.17;;
26484;SDS011;18083;50.560;7.262;2023-06-26T15:50:08;2.35;;;1.32;;
26484;SDS011;18083;50.560;7.262;2023-06-26T15:52:35;2.77;;;1.65;;
26484;SDS011;18083;50.560;7.262;2023-06-26T15:55:03;6.90;;;2.70;;
26484;SDS011;18083;50.560;7.262;2023-06-26T15:57:33;4.10;;;1.77;;
26484;SDS011;18083;50.560;7.262;2023-06-26T16:00:00;2.98;;;1.62;;
26484;SDS011;18083;50.560;7.262;2023-06-26T16:02:28;5.33;;;1.67;;
26484;SDS011;18083;50.560;7.262;2023-06-26T16:04:55;4.95;;;1.65;;
26484;SDS011;18083;50.560;7.262;2023-06-26T16:07:22;2.05;;;1.50;;
26484;SDS011;18083;50.560;7.262;2023-06-26T16:09:50;4.60;;;1.80;;
26484;SDS011;18083;50.560;7.262;2023-06-26T16:12:18;5.05;;;1.47;;
26484;SDS011;18083;50.560;7.262;2023-06-26T16:14:45;5.47;;;1.55;;
26484;SDS011;18083;50.560;7.262;2023-06-26T16:17:12;3.70;;;1.30;;